Time;durP1;ratioP1;P1;durP2;ratioP2;P2;SDS_P1;SDS_P2;PMS_P1;PMS_P2;Temp;Humidity;BMP_temperature;BMP_pressure;BME280_temperature;BME280_humidity;BME280_pressure;Samples;Min_cycle;Max_cycle;Signal;HPM_P1;HPM_P2
2021/01/13 00:08:00;;;;;;;2.72;0.80;;;;;;;16.61;56.42;101768.28;6316662;22;20014;-79
2021/01/13 00:10:33;;;;;;;2.53;0.70;;;;;;;16.61;56.29;101765.69;6298271;22;20022;-76
2021/01/13 00:12:58;;;;;;;2.05;0.70;;;;;;;16.61;56.49;101756.97;6326597;22;19999;-77
2021/01/13 00:15:27;;;;;;;2.50;0.80;;;;;;;16.62;56.13;101756.13;6264812;23;20011;-77
2021/01/13 00:17:54;;;;;;;2.40;0.75;;;;;;;16.61;56.13;101754.38;6232739;23;20047;-76
2021/01/13 00:20:20;;;;;;;1.10;0.50;;;;;;;16.59;56.34;101757.00;6193844;23;20015;-76
2021/01/13 00:22:58;;;;;;;1.52;0.68;;;;;;;16.58;56.42;101739.63;6201669;23;20008;-77
2021/01/13 00:25:26;;;;;;;1.42;0.60;;;;;;;16.59;56.39;101746.59;6251806;23;20007;-76
2021/01/13 00:27:53;;;;;;;1.70;0.70;;;;;;;16.56;56.22;101736.16;6256668;22;20019;-76
2021/01/13 00:30:20;;;;;;;2.05;0.70;;;;;;;16.56;56.30;101733.56;6192180;22;20016;-77
2021/01/13 00:32:56;;;;;;;1.85;0.70;;;;;;;16.58;56.02;101731.84;6182107;23;20100;-76
2021/01/13 00:35:22;;;;;;;1.88;0.77;;;;;;;16.58;56.21;101733.56;6211067;23;20001;-77
2021/01/13 00:37:54;;;;;;;1.80;0.77;;;;;;;16.57;56.04;101731.81;6212237;23;20028;-77
2021/01/13 00:40:19;;;;;;;4.03;0.63;;;;;;;16.55;56.22;101731.81;6221940;22;20071;-76
2021/01/13 00:42:48;;;;;;;2.65;0.73;;;;;;;16.57;55.80;101729.22;6263242;22;20049;-78
2021/01/13 00:47:41;;;;;;;1.55;0.55;;;;;;;16.58;55.88;101730.97;6333507;22;20007;-78
2021/01/13 00:50:17;;;;;;;1.55;0.70;;;;;;;16.56;56.13;101733.56;6292693;22;20031;-78
2021/01/13 00:52:50;;;;;;;2.17;0.60;;;;;;;16.56;56.01;101727.50;6280467;22;20023;-80
2021/01/13 00:55:17;;;;;;;2.08;0.60;;;;;;;16.57;55.97;101737.03;6278880;22;20067;-77
2021/01/13 00:57:52;;;;;;;1.85;0.50;;;;;;;16.57;55.90;101729.22;6279867;22;20043;-78
2021/01/13 01:00:20;;;;;;;1.45;0.60;;;;;;;16.56;55.99;101725.75;6249264;22;20027;-78
2021/01/13 01:02:47;;;;;;;3.00;0.60;;;;;;;16.57;55.71;101726.63;6279968;22;19995;-78
2021/01/13 01:05:21;;;;;;;1.67;0.57;;;;;;;16.59;55.89;101731.00;6305744;22;20007;-80
2021/01/13 01:07:46;;;;;;;;;;;;;;;16.57;55.59;101718.81;6279567;22;19991;-78
2021/01/13 01:10:34;;;;;;;2.42;0.88;;;;;;;16.56;55.69;101717.97;6253763;22;19909;-78
2021/01/13 01:13:07;;;;;;;2.75;0.80;;;;;;;16.57;55.82;101718.81;6279222;22;20003;-80
2021/01/13 01:18:08;;;;;;;2.92;0.70;;;;;;;16.56;55.76;101702.38;6334759;22;20023;-77
2021/01/13 01:20:40;;;;;;;2.13;0.60;;;;;;;16.54;55.73;101709.28;6257602;22;20015;-76
2021/01/13 01:23:08;;;;;;;2.10;0.70;;;;;;;16.54;55.76;101721.41;6334942;22;20017;-80
2021/01/13 01:25:41;;;;;;;1.67;0.68;;;;;;;16.54;55.67;101727.47;6336085;22;19998;-80
2021/01/13 01:31:48;;;;;;;1.77;0.65;;;;;;;16.56;55.54;101717.97;6321860;22;20086;-77
2021/01/13 01:34:15;;;;;;;2.85;0.98;;;;;;;16.53;55.70;101723.16;6324536;22;19995;-76
2021/01/13 01:40:16;;;;;;;1.77;0.57;;;;;;;16.55;55.37;101737.03;6328631;22;20108;-77
2021/01/13 01:43:04;;;;;;;1.77;0.70;;;;;;;16.54;55.55;101709.28;6292766;22;20493;-76
2021/01/13 01:45:31;;;;;;;1.60;0.60;;;;;;;16.53;55.48;101712.75;6298737;22;20069;-75
2021/01/13 01:48:08;;;;;;;1.33;0.50;;;;;;;16.54;55.44;101718.81;6272151;22;20008;-76
2021/01/13 01:50:43;;;;;;;1.52;0.43;;;;;;;16.55;55.40;101725.75;6320797;22;20010;-76
2021/01/13 01:53:21;;;;;;;1.85;0.60;;;;;;;16.54;55.27;101724.00;6292844;22;19999;-75
2021/01/13 01:56:39;;;;;;;1.42;0.50;;;;;;;16.57;55.46;101729.22;6313216;22;20427;-75
2021/01/13 01:59:11;;;;;;;1.42;0.60;;;;;;;16.56;55.17;101746.56;6303313;22;20056;-76
2021/01/13 02:01:44;;;;;;;2.22;0.60;;;;;;;16.56;55.24;101743.09;6316744;22;20025;-75
2021/01/13 02:04:13;;;;;;;2.05;0.60;;;;;;;16.54;55.12;101744.81;6315215;22;20102;-75
2021/01/13 02:07:18;;;;;;;1.08;0.50;;;;;;;16.56;55.17;101738.75;6289738;22;20450;-81
2021/01/13 02:09:44;;;;;;;1.52;0.50;;;;;;;16.57;55.13;101739.63;6283350;22;20003;-80
2021/01/13 02:12:12;;;;;;;1.50;0.73;;;;;;;16.56;55.17;101740.50;6237574;22;20000;-80
2021/01/13 02:14:41;;;;;;;2.28;0.60;;;;;;;16.58;54.95;101739.63;6315739;22;19999;-80
2021/01/13 02:17:11;;;;;;;2.47;0.80;;;;;;;16.56;55.01;101746.56;6312740;22;20410;-77
2021/01/13 02:19:49;;;;;;;2.65;0.65;;;;;;;16.56;54.91;101751.75;6284727;22;20019;-76
2021/01/13 02:22:25;;;;;;;1.20;0.50;;;;;;;16.60;55.09;101752.66;6309222;22;19999;-75
2021/01/13 02:25:16;;;;;;;1.85;0.73;;;;;;;16.59;54.94;101744.00;6308510;22;20045;-75
2021/01/13 02:27:59;;;;;;;2.85;0.60;;;;;;;16.58;54.77;101752.63;6280771;22;20076;-76
2021/01/13 02:30:38;;;;;;;1.00;0.50;;;;;;;16.56;54.71;101754.34;6308022;22;20003;-75
2021/01/13 02:33:09;;;;;;;1.27;0.55;;;;;;;16.55;55.01;101754.31;6308497;22;20049;-75
2021/01/13 02:36:13;;;;;;;1.67;0.70;;;;;;;16.54;54.80;101758.66;6280959;22;20006;-75
2021/01/13 02:38:38;;;;;;;1.77;0.60;;;;;;;16.55;54.93;101746.53;6229874;22;20437;-76
2021/01/13 02:41:15;;;;;;;1.02;0.50;;;;;;;16.56;55.00;101756.06;6281865;22;20038;-75
2021/01/13 02:43:55;;;;;;;1.08;0.50;;;;;;;16.55;54.90;101768.22;6283053;22;19999;-76
2021/01/13 02:46:50;;;;;;;2.25;0.80;;;;;;;16.55;54.98;101783.81;6283198;22;20000;-75
2021/01/13 02:49:20;;;;;;;2.17;0.60;;;;;;;16.55;54.96;101775.09;6281928;22;20053;-75
2021/01/13 02:51:53;;;;;;;2.15;0.65;;;;;;;16.56;54.83;101775.13;6308569;22;20045;-76
2021/01/13 02:54:27;;;;;;;2.42;0.52;;;;;;;16.56;54.60;101767.34;6307901;22;20030;-75
2021/01/13 02:56:55;;;;;;;2.47;0.57;;;;;;;16.55;54.69;101767.31;6289236;22;20024;-75
2021/01/13 02:59:23;;;;;;;1.65;0.70;;;;;;;16.56;54.90;101753.47;6287238;22;19999;-75
2021/01/13 03:01:49;;;;;;;1.77;0.60;;;;;;;16.55;54.86;101759.53;6291862;22;20010;-79
2021/01/13 03:04:15;;;;;;;1.60;0.55;;;;;;;16.54;54.98;101761.25;6277423;22;20024;-77
2021/01/13 03:06:45;;;;;;;2.10;0.70;;;;;;;16.58;54.69;101762.16;6283253;22;20011;-77
2021/01/13 03:11:47;;;;;;;1.58;0.57;;;;;;;16.56;54.78;101759.53;6330960;22;20068;-77
2021/01/13 03:14:18;;;;;;;1.27;0.57;;;;;;;16.54;54.61;101756.06;6280379;22;20761;-78
2021/01/13 03:16:56;;;;;;;2.10;0.95;;;;;;;16.54;54.61;101756.06;6326095;22;20030;-76
2021/01/13 03:19:28;;;;;;;1.80;0.68;;;;;;;16.55;54.65;101747.41;6235395;22;20084;-77
2021/01/13 03:22:03;;;;;;;2.97;0.80;;;;;;;16.55;54.42;101756.91;6331091;22;20018;-75
2021/01/13 03:24:52;;;;;;;1.98;0.60;;;;;;;16.55;54.53;101760.41;6306966;22;20075;-76
2021/01/13 03:27:19;;;;;;;2.30;0.60;;;;;;;16.56;54.49;101763.88;6331515;22;20003;-78
2021/01/13 03:32:21;;;;;;;;;;;;;;;16.58;54.51;101762.16;6267202;22;20004;-79
2021/01/13 03:37:36;;;;;;;1.48;0.50;;;;;;;16.56;54.15;101769.06;6356251;22;20022;-77
2021/01/13 03:40:14;;;;;;;2.25;0.70;;;;;;;16.55;54.31;101767.31;6279013;22;20094;-77
2021/01/13 03:42:53;;;;;;;1.95;0.70;;;;;;;16.54;54.49;101775.97;6258264;22;20012;-77
2021/01/13 03:45:43;;;;;;;1.63;0.65;;;;;;;16.55;54.20;101769.91;6267085;22;20334;-77
2021/01/13 03:48:43;;;;;;;2.60;0.80;;;;;;;16.53;54.33;101767.31;6268686;22;20046;-78
2021/01/13 03:51:47;;;;;;;2.45;0.55;;;;;;;16.53;54.22;101756.06;6270407;22;20423;-77
2021/01/13 03:54:17;;;;;;;;;;;;;;;16.56;54.30;101769.06;6284761;22;20422;-77
2021/01/13 03:57:06;;;;;;;3.17;0.80;;;;;;;16.53;54.21;101764.72;6282867;22;19907;-77
2021/01/13 04:00:08;;;;;;;0.93;0.50;;;;;;;16.54;54.19;101765.59;6292925;22;20007;-77
2021/01/13 04:03:13;;;;;;;2.08;0.60;;;;;;;16.57;54.29;101760.41;6291440;22;20082;-77
2021/01/13 04:06:14;;;;;;;3.35;0.60;;;;;;;16.54;53.98;101758.66;6312457;22;20030;-77
2021/01/13 04:09:09;;;;;;;1.60;0.60;;;;;;;16.54;54.02;101776.84;6313174;22;20003;-77
2021/01/13 04:11:53;;;;;;;3.25;0.75;;;;;;;16.55;53.82;101767.31;6289554;22;20377;-77
2021/01/13 04:14:46;;;;;;;2.05;0.70;;;;;;;16.55;53.88;101756.91;6317461;22;20068;-77
2021/01/13 04:17:13;;;;;;;1.48;0.77;;;;;;;16.56;54.05;101756.06;6314950;22;20060;-78
2021/01/13 04:19:39;;;;;;;2.67;0.70;;;;;;;16.56;54.02;101756.06;6320676;22;20000;-77
2021/01/13 04:22:05;;;;;;;2.42;0.68;;;;;;;16.55;54.04;101757.81;6263833;22;20519;-77
2021/01/13 04:24:42;;;;;;;1.98;0.40;;;;;;;16.54;53.69;101750.00;6286350;22;20018;-77
2021/01/13 04:27:17;;;;;;;1.77;0.85;;;;;;;16.53;53.84;101762.13;6273385;22;20037;-78
2021/01/13 04:29:45;;;;;;;2.20;0.70;;;;;;;16.53;53.70;101759.53;6231949;22;20046;-77
2021/01/13 04:32:12;;;;;;;1.15;0.40;;;;;;;16.52;53.59;101749.09;6305566;22;20020;-76
2021/01/13 04:34:39;;;;;;;2.75;0.70;;;;;;;16.53;53.95;101751.72;6287239;22;20086;-76
2021/01/13 04:37:06;;;;;;;2.30;0.70;;;;;;;16.56;53.79;101745.69;6316308;22;20079;-76
2021/01/13 04:39:40;;;;;;;1.27;0.60;;;;;;;16.54;53.71;101755.19;6317018;22;20441;-75
2021/01/13 04:42:41;;;;;;;1.30;0.50;;;;;;;16.54;53.75;101747.41;6317497;22;20460;-75
2021/01/13 04:45:09;;;;;;;2.70;0.70;;;;;;;16.54;53.89;101750.84;6316218;22;20053;-75
2021/01/13 04:50:13;;;;;;;1.27;0.60;;;;;;;16.52;53.65;101736.13;6320834;22;20458;-76
2021/01/13 04:52:43;;;;;;;2.63;0.73;;;;;;;16.51;53.55;101745.66;6300038;22;20015;-76
2021/01/13 04:55:24;;;;;;;1.65;0.60;;;;;;;16.52;53.72;101739.56;6354843;22;20007;-75
2021/01/13 04:58:27;;;;;;;1.77;0.52;;;;;;;16.51;53.56;101734.38;6329464;22;20342;-75
2021/01/13 05:01:14;;;;;;;2.17;0.60;;;;;;;16.52;53.58;101721.38;6317222;22;20029;-75
2021/01/13 05:04:05;;;;;;;1.40;0.60;;;;;;;16.52;53.69;101731.78;6322600;22;20061;-75
2021/01/13 05:07:19;;;;;;;1.20;0.50;;;;;;;16.50;53.37;101723.09;6229316;22;20023;-76
2021/01/13 05:10:21;;;;;;;2.10;0.50;;;;;;;16.51;53.29;101722.25;6262691;22;20003;-76
2021/01/13 05:12:58;;;;;;;1.20;0.50;;;;;;;16.51;53.69;101722.25;6320038;22;20003;-76
2021/01/13 05:15:54;;;;;;;1.98;0.63;;;;;;;16.50;53.46;101725.69;6286144;22;20026;-76
2021/01/13 05:18:50;;;;;;;1.35;0.50;;;;;;;16.50;53.47;101723.09;6289149;22;20019;-75
2021/01/13 05:21:28;;;;;;;1.52;0.50;;;;;;;16.49;53.34;101718.78;6289078;22;20000;-77
2021/01/13 05:23:56;;;;;;;2.33;0.70;;;;;;;16.49;53.21;101723.09;6260305;22;20411;-79
2021/01/13 05:26:28;;;;;;;2.88;1.10;;;;;;;16.50;53.37;101717.03;6297382;22;20012;-78
2021/01/13 05:29:21;;;;;;;1.52;0.60;;;;;;;16.50;53.36;101720.50;6241253;22;20004;-76
2021/01/13 05:31:51;;;;;;;2.55;0.60;;;;;;;16.50;53.24;101722.25;6257814;22;20010;-78
2021/01/13 05:34:20;;;;;;;2.05;0.55;;;;;;;16.49;52.97;101713.59;6259782;22;20423;-78
2021/01/13 05:37:17;;;;;;;1.45;0.63;;;;;;;16.50;53.33;101719.63;6263487;22;20003;-78
2021/01/13 05:39:50;;;;;;;2.33;0.70;;;;;;;16.49;53.29;101721.38;6294049;22;20041;-77
2021/01/13 05:42:18;;;;;;;1.60;0.65;;;;;;;16.51;53.36;101717.06;6245160;22;20006;-76
2021/01/13 05:44:53;;;;;;;2.97;0.63;;;;;;;16.52;53.35;101725.72;6245437;22;20030;-77
2021/01/13 05:47:53;;;;;;;1.90;0.50;;;;;;;16.50;53.21;101720.50;6271738;22;20049;-78
2021/01/13 05:50:35;;;;;;;2.53;0.70;;;;;;;16.51;53.25;101717.06;6292907;22;20008;-77
2021/01/13 05:53:12;;;;;;;1.92;0.60;;;;;;;16.52;53.32;101718.78;6294377;22;20003;-76
2021/01/13 05:55:49;;;;;;;1.30;0.52;;;;;;;16.52;53.12;101721.38;6272359;22;20019;-76
2021/01/13 06:01:47;;;;;;;1.25;0.52;;;;;;;16.53;52.82;101717.94;6316760;22;20021;-75
2021/01/13 06:04:17;;;;;;;1.30;0.60;;;;;;;16.54;52.77;101716.22;6320777;22;20034;-75
2021/01/13 06:06:58;;;;;;;1.20;0.60;;;;;;;16.56;52.89;101710.16;6288464;22;20003;-75
2021/01/13 06:09:24;;;;;;;4.97;1.50;;;;;;;16.61;52.92;101702.41;6293181;22;20094;-75
2021/01/13 06:11:54;;;;;;;8.10;1.77;;;;;;;16.60;53.21;101693.75;6320365;22;20014;-75
2021/01/13 06:14:27;;;;;;;8.52;1.50;;;;;;;16.76;52.80;101692.13;6266020;22;20090;-77
2021/01/13 06:16:54;;;;;;;6.13;1.77;;;;;;;16.82;52.60;101693.94;6311984;22;20026;-74
2021/01/13 06:19:20;;;;;;;8.20;1.65;;;;;;;16.86;52.61;101698.31;6236548;22;20015;-77
2021/01/13 06:21:47;;;;;;;7.72;1.80;;;;;;;16.89;52.34;101700.06;6262586;22;20003;-75
2021/01/13 06:24:13;;;;;;;9.80;1.70;;;;;;;16.88;52.74;101696.59;6264810;22;20011;-74
2021/01/13 06:27:21;;;;;;;9.20;1.65;;;;;;;16.91;52.40;101699.22;6260256;22;20456;-74
2021/01/13 06:30:01;;;;;;;6.82;1.73;;;;;;;16.93;52.46;101701.84;6243787;22;20429;-74
2021/01/13 06:32:46;;;;;;;6.40;1.65;;;;;;;16.92;52.49;101694.88;6313389;22;20000;-75
2021/01/13 06:35:36;;;;;;;4.35;1.42;;;;;;;16.93;52.40;101696.63;6320131;22;20003;-74
2021/01/13 06:38:06;;;;;;;4.80;1.35;;;;;;;16.94;52.20;101698.34;6283169;22;20007;-74
2021/01/13 06:40:33;;;;;;;7.20;1.40;;;;;;;16.93;52.26;101692.28;6283692;22;20010;-74
2021/01/13 06:43:11;;;;;;;4.75;1.58;;;;;;;16.94;52.18;101698.34;6268789;22;20033;-74
2021/01/13 06:45:38;;;;;;;4.30;1.60;;;;;;;16.94;52.01;101687.97;6295918;22;20029;-75
2021/01/13 06:48:05;;;;;;;4.75;1.48;;;;;;;16.94;52.20;101694.06;6324129;22;20003;-76
2021/01/13 06:50:38;;;;;;;5.60;1.70;;;;;;;16.93;51.90;101692.28;6327035;22;20008;-75
2021/01/13 06:53:10;;;;;;;7.28;1.77;;;;;;;16.95;52.05;101698.38;6334173;22;19999;-75
2021/01/13 06:55:38;;;;;;;4.05;1.42;;;;;;;16.95;52.08;101694.91;6330441;22;20070;-76
2021/01/13 06:58:17;;;;;;;7.53;1.55;;;;;;;16.95;51.75;101700.13;6307481;22;20007;-76
2021/01/13 07:00:47;;;;;;;5.78;1.42;;;;;;;16.95;51.88;101700.13;6307806;22;20058;-78
2021/01/13 07:03:25;;;;;;;4.53;1.30;;;;;;;16.95;51.82;101682.78;6331895;22;20015;-79
2021/01/13 07:06:16;;;;;;;3.90;1.38;;;;;;;16.95;51.68;101692.31;6271156;23;20042;-75
2021/01/13 07:11:16;;;;;;;2.50;1.02;;;;;;;16.97;52.02;101691.47;6334210;22;20009;-77
2021/01/13 07:14:04;;;;;;;4.15;1.10;;;;;;;16.96;51.57;101686.25;6256894;22;20007;-76
2021/01/13 07:16:35;;;;;;;4.00;1.42;;;;;;;16.97;51.46;101693.19;6308908;22;19991;-77
2021/01/13 07:19:03;;;;;;;4.38;1.40;;;;;;;16.99;51.24;101696.69;6308739;22;20033;-78
2021/01/13 07:24:26;;;;;;;3.88;1.40;;;;;;;16.96;51.46;101687.13;6302171;22;20033;-76
2021/01/13 07:29:28;;;;;;;4.22;1.30;;;;;;;16.99;51.31;101691.47;6366134;22;20066;-77
2021/01/13 07:31:57;;;;;;;5.95;1.40;;;;;;;16.99;51.36;101691.47;6340047;22;20030;-77
2021/01/13 07:34:46;;;;;;;3.08;1.00;;;;;;;17.05;51.41;101689.78;6341328;22;20014;-81
2021/01/13 07:37:23;;;;;;;6.60;2.10;;;;;;;17.10;53.45;101691.53;6366402;22;19998;-78
2021/01/13 07:40:14;;;;;;;5.00;1.58;;;;;;;16.79;55.17;101686.97;6259774;22;19987;-76
2021/01/13 07:42:58;;;;;;;3.75;1.38;;;;;;;16.67;54.91;101679.06;6337989;22;19999;-77
2021/01/13 07:45:29;;;;;;;3.67;1.33;;;;;;;16.59;54.65;101681.63;6365599;22;20003;-78
2021/01/13 07:48:11;;;;;;;3.78;1.20;;;;;;;16.53;55.86;101673.78;6343570;22;20015;-77
2021/01/13 07:50:42;;;;;;;4.78;1.23;;;;;;;16.52;55.20;101677.22;6335169;22;20002;-78
2021/01/13 07:53:22;;;;;;;4.20;1.27;;;;;;;16.52;55.43;101674.63;6277809;22;20475;-79
2021/01/13 07:55:56;;;;;;;4.82;1.45;;;;;;;16.51;55.88;101685.88;6272091;23;20052;-77
2021/01/13 07:58:27;;;;;;;2.78;1.17;;;;;;;16.50;55.74;101672.88;6240297;23;20001;-77
2021/01/13 08:00:58;;;;;;;5.38;1.30;;;;;;;16.52;54.25;101673.75;6217206;23;20020;-79
2021/01/13 08:03:44;;;;;;;3.90;1.25;;;;;;;16.54;54.53;101678.09;6243406;23;20009;-78
2021/01/13 08:06:29;;;;;;;2.30;1.10;;;;;;;16.55;55.11;101676.38;6241220;23;20011;-76
2021/01/13 08:09:10;;;;;;;4.65;1.20;;;;;;;16.58;54.51;101677.28;6240953;23;20016;-76
2021/01/13 08:12:13;;;;;;;2.78;0.95;;;;;;;16.57;55.39;101687.66;6213062;23;20435;-77
2021/01/13 08:14:59;;;;;;;;;;;;;;;16.57;54.05;101677.25;6217427;23;20004;-77
2021/01/13 08:17:55;;;;;;;2.50;1.08;;;;;;;16.61;54.35;101679.91;6240598;22;19915;-77
2021/01/13 08:20:48;;;;;;;5.35;1.20;;;;;;;16.63;54.99;101682.50;6301686;22;20007;-77
2021/01/13 08:23:32;;;;;;;3.63;1.10;;;;;;;16.63;53.71;101678.16;6276028;22;20015;-76
2021/01/13 08:26:02;;;;;;;3.90;1.45;;;;;;;16.65;55.28;101676.47;6279787;22;20003;-77
2021/01/13 08:28:36;;;;;;;2.50;1.10;;;;;;;16.66;55.05;101673.00;6249712;22;20011;-77
2021/01/13 08:31:03;;;;;;;2.92;1.27;;;;;;;16.69;53.34;101676.50;6298494;22;20090;-76
2021/01/13 08:33:33;;;;;;;3.67;1.20;;;;;;;16.72;53.79;101672.16;6292183;22;20007;-77
2021/01/13 08:36:07;;;;;;;2.00;0.85;;;;;;;16.73;54.58;101681.72;6267624;22;20004;-76
2021/01/13 08:38:33;;;;;;;;;;;;;;;16.74;56.55;101674.78;6294111;22;20003;-78
2021/01/13 08:44:07;;;;;;;5.65;1.35;;;;;;;16.79;54.02;101673.97;6292489;22;20033;-77
2021/01/13 08:46:39;;;;;;;3.20;1.13;;;;;;;16.79;54.48;101668.78;6267788;22;20494;-76
2021/01/13 08:49:07;;;;;;;3.58;1.00;;;;;;;16.77;55.34;101667.91;6299766;22;20015;-79
2021/01/13 08:56:56;;;;;;;2.78;1.15;;;;;;;16.81;54.07;101669.69;6271330;22;20037;-78
2021/01/13 08:59:37;;;;;;;2.42;0.98;;;;;;;16.83;53.93;101678.38;6248557;22;20036;-76
2021/01/13 09:04:58;;;;;;;2.65;1.00;;;;;;;16.80;54.81;101680.94;6298272;22;20022;-77
2021/01/13 09:08:06;;;;;;;2.50;1.05;;;;;;;16.83;53.98;101674.88;6273885;22;20019;-76
2021/01/13 09:18:40;;;;;;;2.67;1.15;;;;;;;16.78;54.65;101677.41;6327268;22;20019;-76
2021/01/13 09:21:48;;;;;;;2.92;1.00;;;;;;;16.76;54.42;101684.34;6332160;22;20078;-76
2021/01/13 09:24:43;;;;;;;4.40;1.10;;;;;;;16.76;54.61;101673.06;6354152;22;20018;-77
2021/01/13 09:27:12;;;;;;;2.40;0.93;;;;;;;16.75;54.69;101682.59;6354498;22;20032;-77
2021/01/13 09:29:53;;;;;;;2.15;0.80;;;;;;;16.75;55.25;101684.34;6328273;22;20003;-76
2021/01/13 09:37:53;;;;;;;2.92;1.05;;;;;;;16.66;56.99;101677.34;6347175;22;20026;-77
2021/01/13 09:40:21;;;;;;;4.13;1.27;;;;;;;16.69;54.09;101682.56;6356712;22;20063;-76
2021/01/13 09:48:17;;;;;;;3.33;1.00;;;;;;;16.83;54.94;101672.28;6325452;22;20388;-77
2021/01/13 09:50:43;;;;;;;2.97;0.98;;;;;;;16.74;54.50;101682.59;6353582;22;20007;-77
2021/01/13 09:53:15;;;;;;;2.60;0.95;;;;;;;16.80;54.56;101677.47;6325665;22;20019;-77
2021/01/13 09:55:40;;;;;;;3.60;1.08;;;;;;;16.76;54.45;101679.13;6266403;22;20015;-76
2021/01/13 10:00:44;;;;;;;2.67;1.00;;;;;;;16.72;55.50;101679.09;6323000;22;20023;-79
2021/01/13 10:08:30;;;;;;;2.58;1.00;;;;;;;16.66;55.09;101682.56;6314299;22;20022;-76
2021/01/13 10:11:04;;;;;;;3.72;1.13;;;;;;;16.67;54.89;101674.75;6313754;22;20066;-77
2021/01/13 10:13:43;;;;;;;3.50;1.00;;;;;;;16.63;55.15;101683.38;6314270;22;20053;-77
2021/01/13 10:16:13;;;;;;;2.90;0.95;;;;;;;16.56;55.83;101685.91;6246472;23;20008;-77
2021/01/13 10:18:50;;;;;;;2.10;0.93;;;;;;;16.54;55.84;101696.28;6263427;22;20024;-78
2021/01/13 10:28:57;;;;;;;4.28;1.50;;;;;;;16.59;56.17;101684.22;6253695;22;20082;-77
2021/01/13 10:31:30;;;;;;;3.08;1.10;;;;;;;16.57;55.02;101682.44;6196005;23;20023;-77
2021/01/13 10:34:20;;;;;;;2.15;1.00;;;;;;;16.67;55.16;101681.69;6250542;23;20004;-77
2021/01/13 10:36:53;;;;;;;3.00;1.02;;;;;;;16.64;54.98;101686.88;6202902;23;20023;-76
2021/01/13 10:42:52;;;;;;;2.80;1.02;;;;;;;16.56;56.26;101702.38;6251263;22;20030;-76
2021/01/13 10:45:18;;;;;;;4.35;1.02;;;;;;;16.53;55.39;101693.69;6252712;22;20058;-75
2021/01/13 10:48:22;;;;;;;3.95;1.00;;;;;;;16.55;56.72;101684.16;6252734;22;20094;-76
2021/01/13 10:53:33;;;;;;;3.05;0.88;;;;;;;16.56;55.18;101670.34;6314222;22;20023;-79
2021/01/13 11:09:06;;;;;;;3.17;1.10;;;;;;;16.60;55.46;101661.72;6291840;22;20004;-75
2021/01/13 11:11:46;;;;;;;2.83;1.13;;;;;;;16.69;55.39;101660.91;6285119;22;20025;-77
2021/01/13 11:14:18;;;;;;;2.10;1.00;;;;;;;16.66;54.28;101664.34;6312875;22;20078;-77
2021/01/13 11:17:09;;;;;;;2.35;0.90;;;;;;;16.64;56.24;101658.28;6287301;22;20045;-78
2021/01/13 11:20:13;;;;;;;2.97;1.20;;;;;;;16.66;54.95;101653.97;6274222;22;20430;-77
2021/01/13 11:22:46;;;;;;;2.03;0.90;;;;;;;16.65;54.92;101654.81;6302550;22;20004;-77
2021/01/13 11:27:58;;;;;;;2.65;1.02;;;;;;;16.62;54.62;101655.66;6312034;22;20023;-77
2021/01/13 11:30:28;;;;;;;3.22;1.02;;;;;;;16.61;54.88;101648.72;6288399;22;20442;-78
2021/01/13 11:32:57;;;;;;;3.75;1.20;;;;;;;16.69;54.04;101653.09;6321204;22;20071;-78
2021/01/13 11:40:53;;;;;;;2.55;1.17;;;;;;;16.67;55.02;101651.34;6288576;22;20024;-77
2021/01/13 11:43:52;;;;;;;2.22;1.00;;;;;;;16.64;55.17;101653.06;6288238;22;20007;-78
2021/01/13 11:46:29;;;;;;;2.83;1.10;;;;;;;16.59;55.27;101657.34;6279920;22;20012;-78
2021/01/13 11:49:32;;;;;;;2.70;1.05;;;;;;;16.59;55.21;101655.66;6284436;22;20014;-77
2021/01/13 11:52:07;;;;;;;2.28;0.88;;;;;;;16.56;54.51;101637.41;6255852;22;20090;-77
2021/01/13 11:54:39;;;;;;;3.33;1.10;;;;;;;16.53;55.37;101633.94;6262753;22;20006;-78
2021/01/13 11:57:36;;;;;;;3.55;1.45;;;;;;;16.59;55.85;101647.84;6318789;22;20038;-78
2021/01/13 12:03:36;;;;;;;3.72;0.90;;;;;;;16.64;55.03;101635.75;6312042;22;20338;-77
2021/01/13 12:06:17;;;;;;;2.70;0.93;;;;;;;16.68;54.93;101628.84;6313794;22;20011;-77
2021/01/13 12:14:44;;;;;;;2.08;0.75;;;;;;;16.63;55.28;101622.72;6312440;22;20075;-76
2021/01/13 12:17:10;;;;;;;4.35;0.90;;;;;;;16.66;54.47;101613.25;6278994;22;20053;-74
2021/01/13 12:19:42;;;;;;;3.10;1.17;;;;;;;16.65;54.58;101608.88;6260175;22;20374;-75
2021/01/13 12:22:08;;;;;;;2.50;0.95;;;;;;;16.70;56.19;101615.84;6288994;22;20027;-78
2021/01/13 12:24:42;;;;;;;3.72;1.30;;;;;;;16.75;54.07;101607.22;6319540;22;20033;-75
2021/01/13 12:27:36;;;;;;;3.05;1.00;;;;;;;16.77;55.61;101608.13;6287225;22;20354;-78
2021/01/13 12:32:56;;;;;;;2.40;1.08;;;;;;;16.90;53.93;101598.69;6315785;22;20031;31
2021/01/13 12:35:27;;;;;;;4.05;1.25;;;;;;;16.84;53.77;101594.31;6259097;23;20075;-76
2021/01/13 12:37:53;;;;;;;3.45;1.20;;;;;;;16.78;54.52;101598.59;6256766;23;20032;-78
2021/01/13 12:40:49;;;;;;;3.30;1.20;;;;;;;16.81;55.93;101596.00;6254551;23;20004;-77
2021/01/13 12:43:46;;;;;;;3.30;1.17;;;;;;;16.81;54.15;101588.22;6255281;22;20004;-75
2021/01/13 12:46:23;;;;;;;3.03;1.35;;;;;;;16.82;54.08;101589.97;6286112;22;20045;-75
2021/01/13 12:52:11;;;;;;;3.67;1.25;;;;;;;16.91;53.81;101584.81;6280050;22;20019;-75
2021/01/13 12:54:58;;;;;;;3.35;1.23;;;;;;;17.00;53.78;101584.84;6228787;22;20067;-75
2021/01/13 12:57:32;;;;;;;2.42;1.02;;;;;;;17.06;55.08;101589.22;6276687;22;20427;-75
2021/01/13 13:03:22;;;;;;;2.47;1.33;;;;;;;17.01;53.89;101571.00;6285677;22;20131;-76
2021/01/13 13:05:48;;;;;;;2.53;1.13;;;;;;;17.07;53.81;101567.56;6238732;22;20061;-75
2021/01/13 13:11:32;;;;;;;2.10;0.88;;;;;;;16.98;54.40;101560.56;6306490;22;20049;-75
2021/01/13 13:14:00;;;;;;;2.85;1.30;;;;;;;17.00;53.51;101569.25;6257370;22;20028;-75
2021/01/13 13:16:33;;;;;;;2.53;1.02;;;;;;;17.06;53.67;101568.44;6283086;22;20086;-78
2021/01/13 13:37:07;;;;;;;2.35;1.00;;;;;;;17.10;53.53;101549.38;6258764;22;20020;-76
2021/01/13 13:42:32;;;;;;;3.10;0.88;;;;;;;17.10;53.32;101545.91;6322431;22;20041;-75
2021/01/13 14:00:29;;;;;;;2.53;1.05;;;;;;;17.05;54.41;101557.16;6324061;22;20450;-75
2021/01/13 14:09:50;;;;;;;3.42;1.10;;;;;;;17.10;53.21;101551.97;6322605;22;20033;-75
2021/01/13 14:12:59;;;;;;;2.28;0.77;;;;;;;17.09;53.44;101549.34;6320542;22;20003;-78
2021/01/13 14:20:36;;;;;;;2.47;1.00;;;;;;;17.10;52.56;101543.31;6312574;22;20030;-77
2021/01/13 14:23:41;;;;;;;1.73;0.80;;;;;;;17.11;52.73;101545.91;6262910;22;20026;-77
2021/01/13 14:26:36;;;;;;;2.92;1.00;;;;;;;17.12;52.77;101557.19;6317131;22;20003;-77
2021/01/13 14:34:29;;;;;;;2.05;0.85;;;;;;;17.16;52.55;101558.91;6324138;22;20020;-77
2021/01/13 15:35:14;;;;;;;1.55;0.68;;;;;;;17.22;52.05;101544.22;6344945;22;20053;-77
2021/01/13 15:38:33;;;;;;;1.92;0.80;;;;;;;17.19;51.92;101536.41;6259232;22;20019;-78
2021/01/13 15:44:58;;;;;;;2.47;0.75;;;;;;;17.18;51.62;101545.06;6329295;22;20022;-77
2021/01/13 15:54:45;;;;;;;1.05;0.65;;;;;;;17.19;51.93;101540.75;6301008;22;20057;-75
2021/01/13 16:42:42;;;;;;;1.70;0.68;;;;;;;17.28;51.57;101530.34;6289021;22;20065;-77
2021/01/13 16:48:51;;;;;;;4.63;0.70;;;;;;;17.34;51.67;101517.38;6359350;22;20023;-78
2021/01/13 16:59:01;;;;;;;4.13;0.50;;;;;;;17.33;51.93;101530.38;6320502;22;20017;-80
2021/01/13 17:01:41;;;;;;;1.45;0.70;;;;;;;17.30;51.73;101510.41;6335585;22;20047;-81
2021/01/13 17:04:13;;;;;;;2.70;1.10;;;;;;;17.33;51.77;101517.34;6272943;22;19999;-83
2021/01/13 17:09:13;;;;;;;3.00;0.90;;;;;;;17.31;51.85;101511.28;6333014;22;20009;-82
2021/01/13 17:14:18;;;;;;;3.88;0.60;;;;;;;17.30;51.80;101520.81;6328023;22;20015;-80
2021/01/13 17:16:57;;;;;;;3.20;0.60;;;;;;;17.32;51.85;101513.91;6306978;22;20047;-80
2021/01/13 17:19:23;;;;;;;1.60;0.68;;;;;;;17.35;51.80;101506.09;6307268;22;19998;-81
2021/01/13 17:24:24;;;;;;;1.73;0.55;;;;;;;17.32;51.55;101511.28;6334460;22;20003;-82
2021/01/13 17:26:50;;;;;;;1.98;0.70;;;;;;;17.35;51.69;101513.03;6321108;22;20039;-82
2021/01/13 17:29:17;;;;;;;1.17;0.60;;;;;;;17.34;51.52;101517.38;6281480;22;20042;-81
2021/01/13 17:31:44;;;;;;;2.25;0.80;;;;;;;17.35;52.04;101513.03;6281312;22;20017;-81
2021/01/13 17:34:12;;;;;;;2.28;0.85;;;;;;;17.34;51.68;101511.31;6307602;22;20011;-81